sensor_id;sensor_type;location;lat;lon;timestamp;P1;durP1;ratioP1;P2;durP2;ratioP2
35897;SDS011;21997;47.118;15.346;2023-08-08T00:01:17;1.00;;;0.77;;
35897;SDS011;21997;47.118;15.346;2023-08-08T00:04:10;1.80;;;1.20;;
35897;SDS011;21997;47.118;15.346;2023-08-08T00:06:50;1.23;;;0.93;;
35897;SDS011;21997;47.118;15.346;2023-08-08T01:11:56;3.90;;;1.20;;
35897;SDS011;21997;47.118;15.346;2023-08-08T01:26:28;1.10;;;0.90;;
35897;SDS011;21997;47.118;15.346;2023-08-08T01:32:48;2.03;;;1.03;;
35897;SDS011;21997;47.118;15.346;2023-08-08T01:36:00;1.20;;;0.70;;
35897;SDS011;21997;47.118;15.346;2023-08-08T02:00:17;1.07;;;0.90;;
35897;SDS011;21997;47.118;15.346;2023-08-08T02:06:37;1.67;;;1.17;;
35897;SDS011;21997;47.118;15.346;2023-08-08T02:09:39;1.20;;;0.80;;
35897;SDS011;21997;47.118;15.346;2023-08-08T02:12:31;1.50;;;1.13;;
35897;SDS011;21997;47.118;15.346;2023-08-08T02:18:33;1.53;;;1.00;;
35897;SDS011;21997;47.118;15.346;2023-08-08T02:25:07;1.30;;;0.93;;
35897;SDS011;21997;47.118;15.346;2023-08-08T03:24:59;1.40;;;1.30;;
35897;SDS011;21997;47.118;15.346;2023-08-08T03:27:25;3.40;;;1.00;;
35897;SDS011;21997;47.118;15.346;2023-08-08T03:29:50;1.27;;;1.00;;
35897;SDS011;21997;47.118;15.346;2023-08-08T03:32:16;2.27;;;1.07;;
35897;SDS011;21997;47.118;15.346;2023-08-08T03:34:42;2.10;;;0.97;;
35897;SDS011;21997;47.118;15.346;2023-08-08T03:37:07;1.87;;;1.00;;
35897;SDS011;21997;47.118;15.346;2023-08-08T03:39:35;1.73;;;1.13;;
35897;SDS011;21997;47.118;15.346;2023-08-08T03:42:10;1.43;;;1.10;;
35897;SDS011;21997;47.118;15.346;2023-08-08T03:44:41;2.70;;;1.20;;
35897;SDS011;21997;47.118;15.346;2023-08-08T03:47:28;1.30;;;0.90;;
35897;SDS011;21997;47.118;15.346;2023-08-08T03:49:54;1.60;;;1.17;;
35897;SDS011;21997;47.118;15.346;2023-08-08T03:52:22;2.80;;;1.13;;
35897;SDS011;21997;47.118;15.346;2023-08-08T03:54:47;2.13;;;1.10;;
35897;SDS011;21997;47.118;15.346;2023-08-08T03:57:13;3.53;;;0.93;;
35897;SDS011;21997;47.118;15.346;2023-08-08T03:59:38;2.10;;;0.90;;
35897;SDS011;21997;47.118;15.346;2023-08-08T04:02:04;2.00;;;1.10;;
35897;SDS011;21997;47.118;15.346;2023-08-08T04:07:50;2.07;;;1.07;;
35897;SDS011;21997;47.118;15.346;2023-08-08T04:10:18;1.57;;;1.20;;
35897;SDS011;21997;47.118;15.346;2023-08-08T07:48:48;2.47;;;0.97;;
35897;SDS011;21997;47.118;15.346;2023-08-08T07:54:44;2.10;;;1.03;;
35897;SDS011;21997;47.118;15.346;2023-08-08T07:57:53;1.30;;;0.90;;
35897;SDS011;21997;47.118;15.346;2023-08-08T08:01:14;1.90;;;1.20;;
35897;SDS011;21997;47.118;15.346;2023-08-08T08:04:07;1.17;;;0.93;;
35897;SDS011;21997;47.118;15.346;2023-08-08T08:07:30;0.83;;;0.67;;
35897;SDS011;21997;47.118;15.346;2023-08-08T08:13:45;3.67;;;1.10;;
35897;SDS011;21997;47.118;15.346;2023-08-08T08:16:25;3.07;;;0.97;;
35897;SDS011;21997;47.118;15.346;2023-08-08T08:28:57;1.00;;;0.80;;
35897;SDS011;21997;47.118;15.346;2023-08-08T08:31:51;0.87;;;0.63;;
35897;SDS011;21997;47.118;15.346;2023-08-08T08:34:43;0.83;;;0.70;;
35897;SDS011;21997;47.118;15.346;2023-08-08T08:37:41;0.87;;;0.70;;
35897;SDS011;21997;47.118;15.346;2023-08-08T08:40:35;0.80;;;0.50;;
35897;SDS011;21997;47.118;15.346;2023-08-08T08:43:42;1.37;;;0.40;;
35897;SDS011;21997;47.118;15.346;2023-08-08T08:53:44;2.63;;;0.77;;
35897;SDS011;21997;47.118;15.346;2023-08-08T08:57:15;1.00;;;0.60;;
35897;SDS011;21997;47.118;15.346;2023-08-08T08:59:51;1.07;;;0.83;;
35897;SDS011;21997;47.118;15.346;2023-08-08T09:05:51;1.20;;;0.60;;
35897;SDS011;21997;47.118;15.346;2023-08-08T09:09:04;0.80;;;0.60;;
35897;SDS011;21997;47.118;15.346;2023-08-08T09:11:51;0.60;;;0.53;;
35897;SDS011;21997;47.118;15.346;2023-08-08T09:14:39;0.77;;;0.63;;
35897;SDS011;21997;47.118;15.346;2023-08-08T09:20:30;0.73;;;0.50;;
35897;SDS011;21997;47.118;15.346;2023-08-08T09:23:25;1.00;;;0.70;;
35897;SDS011;21997;47.118;15.346;2023-08-08T09:26:34;0.70;;;0.70;;
35897;SDS011;21997;47.118;15.346;2023-08-08T09:36:43;0.83;;;0.60;;
35897;SDS011;21997;47.118;15.346;2023-08-08T09:39:07;2.20;;;0.60;;
35897;SDS011;21997;47.118;15.346;2023-08-08T09:54:19;1.27;;;0.73;;
35897;SDS011;21997;47.118;15.346;2023-08-08T10:00:23;1.00;;;0.63;;
35897;SDS011;21997;47.118;15.346;2023-08-08T10:03:14;0.53;;;0.47;;
35897;SDS011;21997;47.118;15.346;2023-08-08T10:06:12;1.00;;;0.67;;
35897;SDS011;21997;47.118;15.346;2023-08-08T10:12:57;1.37;;;0.83;;
35897;SDS011;21997;47.118;15.346;2023-08-08T10:16:07;0.47;;;0.43;;
35897;SDS011;21997;47.118;15.346;2023-08-08T10:19:20;1.27;;;0.60;;
35897;SDS011;21997;47.118;15.346;2023-08-08T10:22:34;0.53;;;0.53;;
35897;SDS011;21997;47.118;15.346;2023-08-08T10:25:43;0.50;;;0.50;;
35897;SDS011;21997;47.118;15.346;2023-08-08T10:28:56;0.80;;;0.40;;
35897;SDS011;21997;47.118;15.346;2023-08-08T10:41:51;0.60;;;0.50;;
35897;SDS011;21997;47.118;15.346;2023-08-08T10:44:40;0.43;;;0.30;;
35897;SDS011;21997;47.118;15.346;2023-08-08T10:47:36;1.90;;;0.40;;
35897;SDS011;21997;47.118;15.346;2023-08-08T10:50:45;0.60;;;0.50;;
35897;SDS011;21997;47.118;15.346;2023-08-08T11:07:59;0.53;;;0.53;;
35897;SDS011;21997;47.118;15.346;2023-08-08T11:10:45;0.97;;;0.50;;
35897;SDS011;21997;47.118;15.346;2023-08-08T11:14:08;1.20;;;0.53;;
35897;SDS011;21997;47.118;15.346;2023-08-08T11:17:11;1.00;;;0.47;;
35897;SDS011;21997;47.118;15.346;2023-08-08T11:23:05;1.53;;;0.53;;
35897;SDS011;21997;47.118;15.346;2023-08-08T11:25:58;0.73;;;0.73;;
35897;SDS011;21997;47.118;15.346;2023-08-08T11:28:55;0.60;;;0.60;;
35897;SDS011;21997;47.118;15.346;2023-08-08T11:31:28;0.90;;;0.57;;
35897;SDS011;21997;47.118;15.346;2023-08-08T11:34:19;0.53;;;0.50;;
35897;SDS011;21997;47.118;15.346;2023-08-08T11:37:30;0.97;;;0.53;;
35897;SDS011;21997;47.118;15.346;2023-08-08T11:44:16;0.80;;;0.50;;
35897;SDS011;21997;47.118;15.346;2023-08-08T11:47:03;1.20;;;1.00;;
35897;SDS011;21997;47.118;15.346;2023-08-08T11:49:51;0.50;;;0.43;;
35897;SDS011;21997;47.118;15.346;2023-08-08T11:52:25;1.70;;;0.40;;
35897;SDS011;21997;47.118;15.346;2023-08-08T11:55:13;0.80;;;0.63;;
35897;SDS011;21997;47.118;15.346;2023-08-08T12:00:57;0.53;;;0.50;;
35897;SDS011;21997;47.118;15.346;2023-08-08T12:03:37;2.23;;;0.30;;
35897;SDS011;21997;47.118;15.346;2023-08-08T12:06:47;0.30;;;0.30;;
35897;SDS011;21997;47.118;15.346;2023-08-08T12:09:18;0.37;;;0.33;;
35897;SDS011;21997;47.118;15.346;2023-08-08T12:12:02;0.67;;;0.50;;
35897;SDS011;21997;47.118;15.346;2023-08-08T12:14:50;0.70;;;0.60;;
35897;SDS011;21997;47.118;15.346;2023-08-08T12:17:57;0.70;;;0.57;;
35897;SDS011;21997;47.118;15.346;2023-08-08T12:20:29;0.33;;;0.33;;
35897;SDS011;21997;47.118;15.346;2023-08-08T12:23:21;0.60;;;0.60;;
35897;SDS011;21997;47.118;15.346;2023-08-08T12:26:04;0.90;;;0.60;;
35897;SDS011;21997;47.118;15.346;2023-08-08T12:28:33;0.53;;;0.50;;
35897;SDS011;21997;47.118;15.346;2023-08-08T12:31:09;0.87;;;0.70;;
35897;SDS011;21997;47.118;15.346;2023-08-08T12:37:18;0.67;;;0.33;;
35897;SDS011;21997;47.118;15.346;2023-08-08T12:46:24;0.67;;;0.30;;
35897;SDS011;21997;47.118;15.346;2023-08-08T12:48:58;1.63;;;0.70;;
35897;SDS011;21997;47.118;15.346;2023-08-08T12:51:55;0.70;;;0.43;;
35897;SDS011;21997;47.118;15.346;2023-08-08T12:54:52;1.57;;;1.03;;
35897;SDS011;21997;47.118;15.346;2023-08-08T12:57:35;0.90;;;0.50;;
35897;SDS011;21997;47.118;15.346;2023-08-08T13:00:40;0.43;;;0.43;;
35897;SDS011;21997;47.118;15.346;2023-08-08T13:03:51;0.60;;;0.40;;
35897;SDS011;21997;47.118;15.346;2023-08-08T13:09:56;0.40;;;0.30;;
35897;SDS011;21997;47.118;15.346;2023-08-08T13:12:39;0.80;;;0.50;;
35897;SDS011;21997;47.118;15.346;2023-08-08T13:18:58;0.50;;;0.40;;
35897;SDS011;21997;47.118;15.346;2023-08-08T13:21:37;1.37;;;0.43;;
35897;SDS011;21997;47.118;15.346;2023-08-08T13:24:21;0.50;;;0.40;;
35897;SDS011;21997;47.118;15.346;2023-08-08T13:27:36;3.10;;;0.67;;
35897;SDS011;21997;47.118;15.346;2023-08-08T13:30:03;0.40;;;0.30;;
35897;SDS011;21997;47.118;15.346;2023-08-08T13:33:03;3.10;;;0.63;;
35897;SDS011;21997;47.118;15.346;2023-08-08T13:38:59;0.43;;;0.40;;
35897;SDS011;21997;47.118;15.346;2023-08-08T13:53:36;6.37;;;0.70;;
35897;SDS011;21997;47.118;15.346;2023-08-08T13:56:25;1.10;;;0.50;;
35897;SDS011;21997;47.118;15.346;2023-08-08T13:59:32;0.70;;;0.53;;
35897;SDS011;21997;47.118;15.346;2023-08-08T14:02:33;0.80;;;0.63;;
35897;SDS011;21997;47.118;15.346;2023-08-08T14:05:26;0.33;;;0.33;;
35897;SDS011;21997;47.118;15.346;2023-08-08T14:08:03;1.10;;;0.50;;
35897;SDS011;21997;47.118;15.346;2023-08-08T14:11:05;1.47;;;0.50;;
35897;SDS011;21997;47.118;15.346;2023-08-08T14:14:34;0.50;;;0.50;;
35897;SDS011;21997;47.118;15.346;2023-08-08T14:17:12;0.83;;;0.60;;
35897;SDS011;21997;47.118;15.346;2023-08-08T14:20:49;0.83;;;0.60;;
35897;SDS011;21997;47.118;15.346;2023-08-08T14:22:53;0.90;;;0.50;;
35897;SDS011;21997;47.118;15.346;2023-08-08T14:25:31;0.50;;;0.40;;
35897;SDS011;21997;47.118;15.346;2023-08-08T14:28:22;0.30;;;0.30;;
35897;SDS011;21997;47.118;15.346;2023-08-08T14:31:39;0.33;;;0.30;;
35897;SDS011;21997;47.118;15.346;2023-08-08T14:34:08;1.30;;;0.60;;
35897;SDS011;21997;47.118;15.346;2023-08-08T14:36:34;1.10;;;0.50;;
35897;SDS011;21997;47.118;15.346;2023-08-08T14:39:07;0.37;;;0.37;;
35897;SDS011;21997;47.118;15.346;2023-08-08T14:45:36;0.50;;;0.40;;
35897;SDS011;21997;47.118;15.346;2023-08-08T14:48:43;0.50;;;0.40;;
35897;SDS011;21997;47.118;15.346;2023-08-08T14:51:37;0.60;;;0.30;;
35897;SDS011;21997;47.118;15.346;2023-08-08T14:54:28;0.40;;;0.30;;
35897;SDS011;21997;47.118;15.346;2023-08-08T15:00:38;0.93;;;0.77;;
35897;SDS011;21997;47.118;15.346;2023-08-08T15:03:23;0.40;;;0.40;;
35897;SDS011;21997;47.118;15.346;2023-08-08T15:05:57;0.53;;;0.50;;
35897;SDS011;21997;47.118;15.346;2023-08-08T15:14:40;0.63;;;0.50;;
35897;SDS011;21997;47.118;15.346;2023-08-08T15:17:18;0.50;;;0.47;;
35897;SDS011;21997;47.118;15.346;2023-08-08T15:20:15;0.97;;;0.50;;
35897;SDS011;21997;47.118;15.346;2023-08-08T15:23:03;0.63;;;0.50;;
35897;SDS011;21997;47.118;15.346;2023-08-08T15:26:00;4.83;;;0.90;;
35897;SDS011;21997;47.118;15.346;2023-08-08T15:28:44;2.73;;;0.60;;
35897;SDS011;21997;47.118;15.346;2023-08-08T15:35:09;0.43;;;0.23;;
35897;SDS011;21997;47.118;15.346;2023-08-08T15:38:33;0.50;;;0.40;;
35897;SDS011;21997;47.118;15.346;2023-08-08T15:45:14;0.30;;;0.30;;
35897;SDS011;21997;47.118;15.346;2023-08-08T15:47:57;0.77;;;0.30;;
35897;SDS011;21997;47.118;15.346;2023-08-08T15:54:08;0.53;;;0.50;;
35897;SDS011;21997;47.118;15.346;2023-08-08T15:57:53;0.80;;;0.40;;
35897;SDS011;21997;47.118;15.346;2023-08-08T16:01:00;2.27;;;0.50;;
35897;SDS011;21997;47.118;15.346;2023-08-08T16:04:01;0.53;;;0.40;;
35897;SDS011;21997;47.118;15.346;2023-08-08T16:06:38;1.73;;;0.40;;
35897;SDS011;21997;47.118;15.346;2023-08-08T16:09:59;0.97;;;0.60;;
35897;SDS011;21997;47.118;15.346;2023-08-08T16:13:07;0.50;;;0.40;;
35897;SDS011;21997;47.118;15.346;2023-08-08T16:15:39;0.80;;;0.50;;
35897;SDS011;21997;47.118;15.346;2023-08-08T16:22:17;0.30;;;0.30;;
35897;SDS011;21997;47.118;15.346;2023-08-08T16:25:35;0.50;;;0.50;;
35897;SDS011;21997;47.118;15.346;2023-08-08T16:28:58;0.87;;;0.30;;
35897;SDS011;21997;47.118;15.346;2023-08-08T16:31:45;0.33;;;0.30;;
35897;SDS011;21997;47.118;15.346;2023-08-08T16:34:19;0.87;;;0.50;;
35897;SDS011;21997;47.118;15.346;2023-08-08T16:37:00;0.40;;;0.40;;
35897;SDS011;21997;47.118;15.346;2023-08-08T16:39:46;0.47;;;0.30;;
35897;SDS011;21997;47.118;15.346;2023-08-08T16:42:45;1.47;;;0.40;;
35897;SDS011;21997;47.118;15.346;2023-08-08T16:45:33;0.40;;;0.30;;
35897;SDS011;21997;47.118;15.346;2023-08-08T16:48:28;1.43;;;0.60;;
35897;SDS011;21997;47.118;15.346;2023-08-08T16:51:08;0.67;;;0.50;;
35897;SDS011;21997;47.118;15.346;2023-08-08T16:54:18;0.30;;;0.30;;
35897;SDS011;21997;47.118;15.346;2023-08-08T16:57:00;0.60;;;0.50;;
35897;SDS011;21997;47.118;15.346;2023-08-08T17:00:01;1.40;;;0.80;;
35897;SDS011;21997;47.118;15.346;2023-08-08T17:02:45;1.00;;;0.80;;
35897;SDS011;21997;47.118;15.346;2023-08-08T17:05:31;0.77;;;0.43;;
35897;SDS011;21997;47.118;15.346;2023-08-08T17:08:07;0.57;;;0.47;;
35897;SDS011;21997;47.118;15.346;2023-08-08T17:10:36;0.63;;;0.50;;
35897;SDS011;21997;47.118;15.346;2023-08-08T17:13:10;1.20;;;0.47;;
35897;SDS011;21997;47.118;15.346;2023-08-08T17:15:41;0.57;;;0.50;;
35897;SDS011;21997;47.118;15.346;2023-08-08T17:18:23;1.10;;;0.70;;
35897;SDS011;21997;47.118;15.346;2023-08-08T17:20:57;0.53;;;0.40;;
35897;SDS011;21997;47.118;15.346;2023-08-08T17:43:56;1.10;;;0.67;;
35897;SDS011;21997;47.118;15.346;2023-08-08T17:46:40;1.77;;;0.83;;
35897;SDS011;21997;47.118;15.346;2023-08-08T17:49:08;0.73;;;0.60;;
35897;SDS011;21997;47.118;15.346;2023-08-08T17:52:18;1.93;;;1.73;;
35897;SDS011;21997;47.118;15.346;2023-08-08T17:54:44;2.40;;;0.67;;
35897;SDS011;21997;47.118;15.346;2023-08-08T17:57:10;1.43;;;0.80;;
35897;SDS011;21997;47.118;15.346;2023-08-08T18:00:18;2.43;;;0.70;;
35897;SDS011;21997;47.118;15.346;2023-08-08T18:02:44;0.60;;;0.60;;
35897;SDS011;21997;47.118;15.346;2023-08-08T18:05:32;0.53;;;0.50;;
35897;SDS011;21997;47.118;15.346;2023-08-08T18:07:59;2.17;;;1.00;;
35897;SDS011;21997;47.118;15.346;2023-08-08T18:10:25;0.70;;;0.50;;
35897;SDS011;21997;47.118;15.346;2023-08-08T18:13:18;5.60;;;0.70;;
35897;SDS011;21997;47.118;15.346;2023-08-08T18:15:44;0.70;;;0.50;;
35897;SDS011;21997;47.118;15.346;2023-08-08T18:18:21;0.80;;;0.60;;
35897;SDS011;21997;47.118;15.346;2023-08-08T18:53:08;1.33;;;0.63;;
35897;SDS011;21997;47.118;15.346;2023-08-08T18:56:23;0.67;;;0.63;;
35897;SDS011;21997;47.118;15.346;2023-08-08T19:02:27;0.77;;;0.60;;
35897;SDS011;21997;47.118;15.346;2023-08-08T19:05:19;1.03;;;0.77;;
35897;SDS011;21997;47.118;15.346;2023-08-08T19:08:16;2.20;;;1.30;;
35897;SDS011;21997;47.118;15.346;2023-08-08T19:11:18;1.67;;;1.40;;
35897;SDS011;21997;47.118;15.346;2023-08-08T19:14:02;1.53;;;1.43;;
35897;SDS011;21997;47.118;15.346;2023-08-08T19:16:31;1.40;;;1.23;;
35897;SDS011;21997;47.118;15.346;2023-08-08T19:19:19;2.00;;;1.37;;
35897;SDS011;21997;47.118;15.346;2023-08-08T19:22:12;2.03;;;1.23;;
35897;SDS011;21997;47.118;15.346;2023-08-08T19:25:20;1.50;;;1.27;;
35897;SDS011;21997;47.118;15.346;2023-08-08T19:27:47;0.80;;;0.80;;
35897;SDS011;21997;47.118;15.346;2023-08-08T19:30:17;1.00;;;0.83;;
35897;SDS011;21997;47.118;15.346;2023-08-08T19:33:07;0.80;;;0.80;;
35897;SDS011;21997;47.118;15.346;2023-08-08T19:36:07;1.63;;;0.80;;
35897;SDS011;21997;47.118;15.346;2023-08-08T20:13:26;3.03;;;1.00;;
35897;SDS011;21997;47.118;15.346;2023-08-08T20:47:14;1.27;;;0.80;;
35897;SDS011;21997;47.118;15.346;2023-08-08T20:57:12;2.03;;;0.80;;
35897;SDS011;21997;47.118;15.346;2023-08-08T21:25:15;2.23;;;0.97;;
35897;SDS011;21997;47.118;15.346;2023-08-08T21:39:31;4.33;;;1.17;;
35897;SDS011;21997;47.118;15.346;2023-08-08T21:56:43;1.13;;;0.90;;
35897;SDS011;21997;47.118;15.346;2023-08-08T22:00:13;1.93;;;1.20;;
35897;SDS011;21997;47.118;15.346;2023-08-08T22:06:53;2.03;;;1.17;;
35897;SDS011;21997;47.118;15.346;2023-08-08T22:35:46;1.10;;;1.00;;
35897;SDS011;21997;47.118;15.346;2023-08-08T23:00:09;4.87;;;1.60;;
35897;SDS011;21997;47.118;15.346;2023-08-08T23:03:24;3.97;;;1.40;;
35897;SDS011;21997;47.118;15.346;2023-08-08T23:16:03;2.33;;;1.37;;
35897;SDS011;21997;47.118;15.346;2023-08-08T23:33:07;1.67;;;0.90;;
